sensor_id;sensor_type;location;lat;lon;timestamp;pressure;altitude;pressure_sealevel;temperature;humidity
54308;BME280;40208;39.778;2.710;2022-07-29T00:02:25;101167.22;;;26.85;100.00
54308;BME280;40208;39.778;2.710;2022-07-29T00:05:09;101154.25;;;26.79;100.00
54308;BME280;40208;39.778;2.710;2022-07-29T00:07:57;101161.75;;;26.77;100.00
54308;BME280;40208;39.778;2.710;2022-07-29T00:10:42;101162.06;;;26.74;100.00
54308;BME280;40208;39.778;2.710;2022-07-29T00:13:27;101162.75;;;26.68;100.00
54308;BME280;40208;39.778;2.710;2022-07-29T00:16:12;101156.75;;;26.64;100.00
54308;BME280;40208;39.778;2.710;2022-07-29T00:18:57;101161.34;;;26.63;100.00
54308;BME280;40208;39.778;2.710;2022-07-29T00:21:42;101159.81;;;26.61;100.00
54308;BME280;40208;39.778;2.710;2022-07-29T00:24:27;101164.22;;;26.54;100.00
54308;BME280;40208;39.778;2.710;2022-07-29T00:27:12;101124.41;;;26.27;100.00
54308;BME280;40208;39.778;2.710;2022-07-29T00:29:56;101171.50;;;26.53;100.00
54308;BME280;40208;39.778;2.710;2022-07-29T00:32:41;101167.25;;;26.51;100.00
54308;BME280;40208;39.778;2.710;2022-07-29T00:35:26;101149.88;;;26.43;100.00
54308;BME280;40208;39.778;2.710;2022-07-29T00:38:29;101099.22;;;26.16;100.00
54308;BME280;40208;39.778;2.710;2022-07-29T00:41:14;101143.88;;;26.40;100.00
54308;BME280;40208;39.778;2.710;2022-07-29T00:43:58;101124.59;;;26.25;100.00
54308;BME280;40208;39.778;2.710;2022-07-29T00:46:43;101139.69;;;26.19;100.00
54308;BME280;40208;39.778;2.710;2022-07-29T00:49:28;101129.47;;;26.13;100.00
54308;BME280;40208;39.778;2.710;2022-07-29T00:52:13;101118.25;;;26.08;100.00
54308;BME280;40208;39.778;2.710;2022-07-29T00:54:57;101143.13;;;26.21;100.00
54308;BME280;40208;39.778;2.710;2022-07-29T00:57:43;101149.25;;;26.23;100.00
54308;BME280;40208;39.778;2.710;2022-07-29T01:00:29;101135.91;;;26.12;100.00
54308;BME280;40208;39.778;2.710;2022-07-29T01:03:14;101144.47;;;26.17;100.00
54308;BME280;40208;39.778;2.710;2022-07-29T01:05:59;101141.91;;;26.16;100.00
54308;BME280;40208;39.778;2.710;2022-07-29T01:08:47;101115.72;;;25.89;100.00
54308;BME280;40208;39.778;2.710;2022-07-29T01:11:33;101148.47;;;26.05;100.00
54308;BME280;40208;39.778;2.710;2022-07-29T01:14:18;101127.63;;;25.88;100.00
54308;BME280;40208;39.778;2.710;2022-07-29T01:20:12;101110.19;;;25.72;100.00
54308;BME280;40208;39.778;2.710;2022-07-29T01:28:56;101097.22;;;25.66;100.00
54308;BME280;40208;39.778;2.710;2022-07-29T01:31:51;101124.53;;;25.83;100.00
54308;BME280;40208;39.778;2.710;2022-07-29T01:34:52;101141.69;;;25.83;100.00
54308;BME280;40208;39.778;2.710;2022-07-29T01:40:48;101122.72;;;25.65;100.00
54308;BME280;40208;39.778;2.710;2022-07-29T01:44:02;101136.84;;;25.69;100.00
54308;BME280;40208;39.778;2.710;2022-07-29T01:46:54;101091.78;;;25.40;100.00
54308;BME280;40208;39.778;2.710;2022-07-29T01:49:45;101140.16;;;25.63;100.00
54308;BME280;40208;39.778;2.710;2022-07-29T01:52:36;101141.34;;;25.60;100.00
54308;BME280;40208;39.778;2.710;2022-07-29T01:55:26;101155.97;;;25.59;100.00
54308;BME280;40208;39.778;2.710;2022-07-29T01:58:14;101146.97;;;25.58;100.00
54308;BME280;40208;39.778;2.710;2022-07-29T02:01:00;101147.09;;;25.57;100.00
54308;BME280;40208;39.778;2.710;2022-07-29T02:03:46;101152.09;;;25.44;100.00
54308;BME280;40208;39.778;2.710;2022-07-29T02:06:33;101154.19;;;25.50;100.00
54308;BME280;40208;39.778;2.710;2022-07-29T02:09:21;101161.34;;;25.51;100.00
54308;BME280;40208;39.778;2.710;2022-07-29T02:12:07;101160.66;;;25.49;100.00
54308;BME280;40208;39.778;2.710;2022-07-29T02:14:53;101159.09;;;25.46;100.00
54308;BME280;40208;39.778;2.710;2022-07-29T02:17:42;101161.72;;;25.38;100.00
54308;BME280;40208;39.778;2.710;2022-07-29T02:20:28;101156.44;;;25.36;100.00
54308;BME280;40208;39.778;2.710;2022-07-29T02:23:17;101163.59;;;25.37;100.00
54308;BME280;40208;39.778;2.710;2022-07-29T02:29:39;101160.97;;;25.28;100.00
54308;BME280;40208;39.778;2.710;2022-07-29T02:36:51;101166.50;;;25.18;100.00
54308;BME280;40208;39.778;2.710;2022-07-29T02:39:53;101169.91;;;25.20;100.00
54308;BME280;40208;39.778;2.710;2022-07-29T02:42:41;101165.16;;;25.22;100.00
54308;BME280;40208;39.778;2.710;2022-07-29T02:45:58;101167.00;;;25.22;100.00
54308;BME280;40208;39.778;2.710;2022-07-29T02:49:10;101164.63;;;25.18;100.00
54308;BME280;40208;39.778;2.710;2022-07-29T02:52:10;101167.19;;;25.20;100.00
54308;BME280;40208;39.778;2.710;2022-07-29T02:55:03;101167.19;;;25.20;100.00
54308;BME280;40208;39.778;2.710;2022-07-29T03:01:46;101127.56;;;25.00;100.00
54308;BME280;40208;39.778;2.710;2022-07-29T03:04:32;101143.00;;;25.17;100.00
54308;BME280;40208;39.778;2.710;2022-07-29T03:07:20;101112.75;;;24.94;100.00
54308;BME280;40208;39.778;2.710;2022-07-29T03:10:06;101138.22;;;25.11;100.00
54308;BME280;40208;39.778;2.710;2022-07-29T03:12:54;101126.97;;;25.06;100.00
54308;BME280;40208;39.778;2.710;2022-07-29T03:15:43;101135.56;;;25.01;100.00
54308;BME280;40208;39.778;2.710;2022-07-29T03:18:29;101134.31;;;24.95;100.00
54308;BME280;40208;39.778;2.710;2022-07-29T03:21:15;101137.59;;;24.99;100.00
54308;BME280;40208;39.778;2.710;2022-07-29T03:24:00;101130.59;;;24.96;100.00
54308;BME280;40208;39.778;2.710;2022-07-29T03:26:45;101143.16;;;24.97;100.00
54308;BME280;40208;39.778;2.710;2022-07-29T03:29:29;101148.72;;;24.96;100.00
54308;BME280;40208;39.778;2.710;2022-07-29T03:32:14;101147.19;;;24.93;100.00
54308;BME280;40208;39.778;2.710;2022-07-29T03:34:59;101159.06;;;24.92;100.00
54308;BME280;40208;39.778;2.710;2022-07-29T03:37:44;101142.38;;;24.87;100.00
54308;BME280;40208;39.778;2.710;2022-07-29T03:40:37;101142.66;;;24.84;100.00
54308;BME280;40208;39.778;2.710;2022-07-29T03:43:24;101140.84;;;24.85;100.00
54308;BME280;40208;39.778;2.710;2022-07-29T03:46:16;101139.56;;;24.79;100.00
54308;BME280;40208;39.778;2.710;2022-07-29T03:49:04;101113.25;;;24.62;100.00
54308;BME280;40208;39.778;2.710;2022-07-29T03:51:49;101130.97;;;24.66;100.00
54308;BME280;40208;39.778;2.710;2022-07-29T03:54:34;101136.59;;;24.72;100.00
54308;BME280;40208;39.778;2.710;2022-07-29T03:57:23;101142.22;;;24.71;100.00
54308;BME280;40208;39.778;2.710;2022-07-29T04:00:09;101108.75;;;24.52;100.00
54308;BME280;40208;39.778;2.710;2022-07-29T04:02:54;101141.81;;;24.66;100.00
54308;BME280;40208;39.778;2.710;2022-07-29T04:05:39;101140.09;;;24.65;100.00
54308;BME280;40208;39.778;2.710;2022-07-29T04:08:24;101136.66;;;24.63;100.00
54308;BME280;40208;39.778;2.710;2022-07-29T04:11:10;101113.88;;;24.46;100.00
54308;BME280;40208;39.778;2.710;2022-07-29T04:13:55;101151.97;;;24.64;100.00
54308;BME280;40208;39.778;2.710;2022-07-29T04:16:39;101100.00;;;24.31;100.00
54308;BME280;40208;39.778;2.710;2022-07-29T04:19:24;101145.84;;;24.62;100.00
54308;BME280;40208;39.778;2.710;2022-07-29T04:22:09;101147.69;;;24.61;100.00
54308;BME280;40208;39.778;2.710;2022-07-29T04:24:54;101122.19;;;24.44;100.00
54308;BME280;40208;39.778;2.710;2022-07-29T04:27:39;101143.00;;;24.53;100.00
54308;BME280;40208;39.778;2.710;2022-07-29T04:30:44;101146.88;;;24.51;100.00
54308;BME280;40208;39.778;2.710;2022-07-29T04:33:29;101151.16;;;24.44;100.00
54308;BME280;40208;39.778;2.710;2022-07-29T04:36:14;101148.50;;;24.34;100.00
54308;BME280;40208;39.778;2.710;2022-07-29T04:38:59;101158.63;;;24.42;100.00
54308;BME280;40208;39.778;2.710;2022-07-29T04:41:45;101159.75;;;24.39;100.00
54308;BME280;40208;39.778;2.710;2022-07-29T04:44:30;101171.63;;;24.38;100.00
54308;BME280;40208;39.778;2.710;2022-07-29T04:47:15;101171.63;;;24.38;100.00
54308;BME280;40208;39.778;2.710;2022-07-29T04:50:00;101170.59;;;24.39;100.00
54308;BME280;40208;39.778;2.710;2022-07-29T04:52:45;101174.34;;;24.38;100.00
54308;BME280;40208;39.778;2.710;2022-07-29T04:55:30;101179.75;;;24.38;100.00
54308;BME280;40208;39.778;2.710;2022-07-29T04:58:15;101182.47;;;24.38;100.00
54308;BME280;40208;39.778;2.710;2022-07-29T05:00:59;101187.91;;;24.38;100.00
54308;BME280;40208;39.778;2.710;2022-07-29T05:03:44;101194.34;;;24.37;100.00
54308;BME280;40208;39.778;2.710;2022-07-29T05:06:29;101191.63;;;24.37;100.00
54308;BME280;40208;39.778;2.710;2022-07-29T05:09:14;101196.34;;;24.35;100.00
54308;BME280;40208;39.778;2.710;2022-07-29T05:11:59;101196.03;;;24.38;100.00
54308;BME280;40208;39.778;2.710;2022-07-29T05:14:44;101182.66;;;24.27;100.00
54308;BME280;40208;39.778;2.710;2022-07-29T05:17:29;101196.50;;;24.33;100.00
54308;BME280;40208;39.778;2.710;2022-07-29T05:20:14;101194.34;;;24.37;100.00
54308;BME280;40208;39.778;2.710;2022-07-29T05:22:59;101193.78;;;24.33;100.00
54308;BME280;40208;39.778;2.710;2022-07-29T05:25:44;101196.78;;;24.30;100.00
54308;BME280;40208;39.778;2.710;2022-07-29T05:28:33;101182.28;;;24.12;100.00
54308;BME280;40208;39.778;2.710;2022-07-29T05:31:19;101203.25;;;24.20;100.00
54308;BME280;40208;39.778;2.710;2022-07-29T05:34:04;101198.25;;;24.15;100.00
54308;BME280;40208;39.778;2.710;2022-07-29T05:36:49;101200.44;;;24.11;100.00
54308;BME280;40208;39.778;2.710;2022-07-29T05:39:34;101208.25;;;24.15;100.00
54308;BME280;40208;39.778;2.710;2022-07-29T05:42:19;101218.13;;;24.16;100.00
54308;BME280;40208;39.778;2.710;2022-07-29T05:45:04;101219.41;;;24.11;100.00
54308;BME280;40208;39.778;2.710;2022-07-29T05:47:49;101188.63;;;23.93;100.00
54308;BME280;40208;39.778;2.710;2022-07-29T05:50:34;101221.53;;;24.08;100.00
54308;BME280;40208;39.778;2.710;2022-07-29T05:53:19;101210.56;;;24.09;100.00
54308;BME280;40208;39.778;2.710;2022-07-29T05:56:06;101210.00;;;24.16;100.00
54308;BME280;40208;39.778;2.710;2022-07-29T05:58:51;101214.00;;;24.11;100.00
54308;BME280;40208;39.778;2.710;2022-07-29T06:01:36;101197.59;;;24.03;100.00
54308;BME280;40208;39.778;2.710;2022-07-29T06:04:23;101209.69;;;24.19;100.00
54308;BME280;40208;39.778;2.710;2022-07-29T06:07:08;101164.63;;;23.98;100.00
54308;BME280;40208;39.778;2.710;2022-07-29T06:09:53;101200.53;;;24.20;100.00
54308;BME280;40208;39.778;2.710;2022-07-29T06:12:38;101201.66;;;24.27;100.00
54308;BME280;40208;39.778;2.710;2022-07-29T06:15:22;101209.06;;;24.34;100.00
54308;BME280;40208;39.778;2.710;2022-07-29T06:18:08;101220.47;;;24.38;100.00
54308;BME280;40208;39.778;2.710;2022-07-29T06:20:53;101197.06;;;24.27;100.00
54308;BME280;40208;39.778;2.710;2022-07-29T06:23:39;101221.63;;;24.36;100.00
54308;BME280;40208;39.778;2.710;2022-07-29T06:26:24;101219.44;;;24.39;100.00
54308;BME280;40208;39.778;2.710;2022-07-29T06:29:09;101223.03;;;24.49;100.00
54308;BME280;40208;39.778;2.710;2022-07-29T06:31:57;101224.72;;;24.50;100.00
54308;BME280;40208;39.778;2.710;2022-07-29T06:34:42;101225.84;;;24.58;100.00
54308;BME280;40208;39.778;2.710;2022-07-29T06:37:27;101229.38;;;24.68;100.00
54308;BME280;40208;39.778;2.710;2022-07-29T06:40:12;101230.31;;;24.76;100.00
54308;BME280;40208;39.778;2.710;2022-07-29T06:43:15;101229.41;;;24.86;100.00
54308;BME280;40208;39.778;2.710;2022-07-29T06:46:11;101228.75;;;25.02;100.00
54308;BME280;40208;39.778;2.710;2022-07-29T06:48:56;101224.94;;;25.12;100.00
54308;BME280;40208;39.778;2.710;2022-07-29T06:51:41;101229.34;;;25.23;100.00
54308;BME280;40208;39.778;2.710;2022-07-29T06:54:26;101236.59;;;25.32;100.00
54308;BME280;40208;39.778;2.710;2022-07-29T06:57:11;101224.94;;;25.40;100.00
54308;BME280;40208;39.778;2.710;2022-07-29T06:59:56;101233.00;;;25.50;100.00
54308;BME280;40208;39.778;2.710;2022-07-29T07:02:41;101192.66;;;25.37;100.00
54308;BME280;40208;39.778;2.710;2022-07-29T07:05:26;101225.16;;;25.65;100.00
54308;BME280;40208;39.778;2.710;2022-07-29T07:08:11;101228.78;;;25.73;100.00
54308;BME280;40208;39.778;2.710;2022-07-29T07:10:56;101195.41;;;25.63;100.00
54308;BME280;40208;39.778;2.710;2022-07-29T07:13:41;101230.19;;;25.95;100.00
54308;BME280;40208;39.778;2.710;2022-07-29T07:16:26;101206.78;;;25.85;100.00
54308;BME280;40208;39.778;2.710;2022-07-29T07:19:11;101199.56;;;25.93;100.00
54308;BME280;40208;39.778;2.710;2022-07-29T07:21:55;101219.97;;;26.15;100.00
54308;BME280;40208;39.778;2.710;2022-07-29T07:24:40;101219.84;;;26.25;100.00
54308;BME280;40208;39.778;2.710;2022-07-29T07:27:25;101215.28;;;26.34;100.00
54308;BME280;40208;39.778;2.710;2022-07-29T07:30:12;101187.72;;;26.29;100.00
54308;BME280;40208;39.778;2.710;2022-07-29T07:32:57;101220.81;;;26.50;100.00
54308;BME280;40208;39.778;2.710;2022-07-29T07:35:42;101212.41;;;26.61;100.00
54308;BME280;40208;39.778;2.710;2022-07-29T07:38:27;101212.25;;;26.71;100.00
54308;BME280;40208;39.778;2.710;2022-07-29T07:41:12;101212.13;;;26.81;100.00
54308;BME280;40208;39.778;2.710;2022-07-29T07:43:56;101213.84;;;26.82;100.00
54308;BME280;40208;39.778;2.710;2022-07-29T07:46:41;101210.13;;;26.91;100.00
54308;BME280;40208;39.778;2.710;2022-07-29T07:49:26;101207.41;;;26.99;100.00
54308;BME280;40208;39.778;2.710;2022-07-29T07:52:11;101206.06;;;27.03;100.00
54308;BME280;40208;39.778;2.710;2022-07-29T07:54:56;101205.75;;;27.15;100.00
54308;BME280;40208;39.778;2.710;2022-07-29T07:57:40;101203.06;;;27.23;100.00
54308;BME280;40208;39.778;2.710;2022-07-29T08:00:25;101197.97;;;27.28;100.00
54308;BME280;40208;39.778;2.710;2022-07-29T08:03:10;101198.16;;;27.35;100.00
54308;BME280;40208;39.778;2.710;2022-07-29T08:05:57;101173.94;;;27.23;100.00
54308;BME280;40208;39.778;2.710;2022-07-29T08:08:42;101201.03;;;27.49;100.00
54308;BME280;40208;39.778;2.710;2022-07-29T08:11:27;101197.31;;;27.59;100.00
54308;BME280;40208;39.778;2.710;2022-07-29T08:14:12;101191.66;;;27.68;100.00
54308;BME280;40208;39.778;2.710;2022-07-29T08:16:58;101197.97;;;27.77;100.00
54308;BME280;40208;39.778;2.710;2022-07-29T08:19:42;101187.41;;;27.82;100.00
54308;BME280;40208;39.778;2.710;2022-07-29T08:22:27;101193.75;;;27.91;100.00
54308;BME280;40208;39.778;2.710;2022-07-29T08:25:12;101187.41;;;27.99;100.00
54308;BME280;40208;39.778;2.710;2022-07-29T08:27:57;101184.00;;;28.05;100.00
54308;BME280;40208;39.778;2.710;2022-07-29T08:30:42;101185.50;;;28.16;100.00
54308;BME280;40208;39.778;2.710;2022-07-29T08:33:27;101086.50;;;27.66;100.00
54308;BME280;40208;39.778;2.710;2022-07-29T08:36:12;101184.59;;;28.31;100.00
54308;BME280;40208;39.778;2.710;2022-07-29T08:38:57;101191.75;;;28.41;100.00
54308;BME280;40208;39.778;2.710;2022-07-29T08:41:42;101161.03;;;28.39;100.00
54308;BME280;40208;39.778;2.710;2022-07-29T08:44:27;101195.44;;;28.64;100.00
54308;BME280;40208;39.778;2.710;2022-07-29T08:47:14;101193.72;;;28.63;100.00
54308;BME280;40208;39.778;2.710;2022-07-29T08:49:59;101151.78;;;28.40;100.00
54308;BME280;40208;39.778;2.710;2022-07-29T08:52:44;101185.16;;;28.66;100.00
54308;BME280;40208;39.778;2.710;2022-07-29T08:55:30;101177.94;;;28.73;100.00
54308;BME280;40208;39.778;2.710;2022-07-29T08:58:16;101186.97;;;28.82;100.00
54308;BME280;40208;39.778;2.710;2022-07-29T09:01:02;101180.28;;;28.85;100.00
54308;BME280;40208;39.778;2.710;2022-07-29T09:03:47;101142.88;;;28.54;100.00
54308;BME280;40208;39.778;2.710;2022-07-29T09:06:34;101193.59;;;28.88;100.00
54308;BME280;40208;39.778;2.710;2022-07-29T09:09:21;101195.97;;;28.91;100.00
54308;BME280;40208;39.778;2.710;2022-07-29T09:12:06;101205.81;;;29.00;100.00
54308;BME280;40208;39.778;2.710;2022-07-29T09:14:52;101200.00;;;29.03;100.00
54308;BME280;40208;39.778;2.710;2022-07-29T09:17:45;101194.53;;;29.03;100.00
54308;BME280;40208;39.778;2.710;2022-07-29T09:20:31;101205.25;;;29.13;100.00
54308;BME280;40208;39.778;2.710;2022-07-29T09:23:34;101207.50;;;29.09;100.00
54308;BME280;40208;39.778;2.710;2022-07-29T09:26:19;101216.91;;;29.07;100.00
54308;BME280;40208;39.778;2.710;2022-07-29T09:29:16;101218.94;;;29.05;100.00
54308;BME280;40208;39.778;2.710;2022-07-29T09:32:06;101215.34;;;29.12;100.00
54308;BME280;40208;39.778;2.710;2022-07-29T09:35:22;101218.91;;;29.13;100.00
54308;BME280;40208;39.778;2.710;2022-07-29T09:38:14;101221.97;;;29.18;100.00
54308;BME280;40208;39.778;2.710;2022-07-29T09:41:01;101228.22;;;29.27;100.00
54308;BME280;40208;39.778;2.710;2022-07-29T09:43:54;101227.63;;;29.39;100.00
54308;BME280;40208;39.778;2.710;2022-07-29T09:46:39;101227.88;;;29.53;100.00
54308;BME280;40208;39.778;2.710;2022-07-29T09:49:24;101228.03;;;29.51;100.00
54308;BME280;40208;39.778;2.710;2022-07-29T09:52:09;101216.97;;;29.45;100.00
54308;BME280;40208;39.778;2.710;2022-07-29T09:55:09;101207.59;;;29.47;100.00
54308;BME280;40208;39.778;2.710;2022-07-29T09:58:17;101242.13;;;29.71;100.00
54308;BME280;40208;39.778;2.710;2022-07-29T10:01:02;101235.06;;;29.77;100.00
54308;BME280;40208;39.778;2.710;2022-07-29T10:03:52;101234.88;;;29.78;100.00
54308;BME280;40208;39.778;2.710;2022-07-29T10:06:55;101218.81;;;29.75;100.00
54308;BME280;40208;39.778;2.710;2022-07-29T10:09:52;101229.31;;;29.87;100.00
54308;BME280;40208;39.778;2.710;2022-07-29T10:12:57;101233.22;;;29.92;100.00
54308;BME280;40208;39.778;2.710;2022-07-29T10:15:44;101167.56;;;29.46;100.00
54308;BME280;40208;39.778;2.710;2022-07-29T10:18:30;101234.53;;;29.96;100.00
54308;BME280;40208;39.778;2.710;2022-07-29T10:21:15;101247.84;;;29.99;100.00
54308;BME280;40208;39.778;2.710;2022-07-29T10:24:01;101152.38;;;29.44;100.00
54308;BME280;40208;39.778;2.710;2022-07-29T10:26:45;101246.72;;;30.09;100.00
54308;BME280;40208;39.778;2.710;2022-07-29T10:29:32;101237.88;;;30.07;100.00
54308;BME280;40208;39.778;2.710;2022-07-29T10:44:25;101256.81;;;30.31;100.00
54308;BME280;40208;39.778;2.710;2022-07-29T10:47:24;101252.84;;;30.34;100.00
54308;BME280;40208;39.778;2.710;2022-07-29T10:50:10;101245.94;;;30.38;100.00
54308;BME280;40208;39.778;2.710;2022-07-29T10:52:55;101212.75;;;30.18;100.00
54308;BME280;40208;39.778;2.710;2022-07-29T10:55:43;101244.34;;;30.43;100.00
54308;BME280;40208;39.778;2.710;2022-07-29T10:58:31;101238.69;;;30.45;100.00
54308;BME280;40208;39.778;2.710;2022-07-29T11:01:34;101212.31;;;30.29;100.00
54308;BME280;40208;39.778;2.710;2022-07-29T11:07:30;101239.63;;;30.52;100.00
54308;BME280;40208;39.778;2.710;2022-07-29T11:13:00;101193.31;;;30.28;100.00
54308;BME280;40208;39.778;2.710;2022-07-29T11:15:57;101243.75;;;30.63;100.00
54308;BME280;40208;39.778;2.710;2022-07-29T11:21:58;101231.19;;;30.69;100.00
54308;BME280;40208;39.778;2.710;2022-07-29T11:24:42;101226.19;;;30.72;100.00
54308;BME280;40208;39.778;2.710;2022-07-29T11:27:30;101226.00;;;30.74;100.00
54308;BME280;40208;39.778;2.710;2022-07-29T11:30:50;101230.06;;;30.78;100.00
54308;BME280;40208;39.778;2.710;2022-07-29T11:33:35;101237.41;;;30.77;100.00
54308;BME280;40208;39.778;2.710;2022-07-29T11:36:20;101236.69;;;30.83;100.00
54308;BME280;40208;39.778;2.710;2022-07-29T11:39:31;101236.69;;;30.83;100.00
54308;BME280;40208;39.778;2.710;2022-07-29T11:45:13;101244.72;;;30.85;100.00
54308;BME280;40208;39.778;2.710;2022-07-29T11:47:59;101246.50;;;30.93;100.00
54308;BME280;40208;39.778;2.710;2022-07-29T11:50:44;101253.75;;;31.00;100.00
54308;BME280;40208;39.778;2.710;2022-07-29T11:53:29;101252.91;;;31.00;100.00
54308;BME280;40208;39.778;2.710;2022-07-29T11:56:20;101248.09;;;31.02;100.00
54308;BME280;40208;39.778;2.710;2022-07-29T11:59:06;101252.44;;;31.11;100.00
54308;BME280;40208;39.778;2.710;2022-07-29T12:01:58;101257.91;;;31.11;100.00
54308;BME280;40208;39.778;2.710;2022-07-29T12:04:49;101264.69;;;31.15;100.00
54308;BME280;40208;39.778;2.710;2022-07-29T12:07:34;101228.16;;;30.93;100.00
54308;BME280;40208;39.778;2.710;2022-07-29T12:10:19;101261.28;;;31.13;100.00
54308;BME280;40208;39.778;2.710;2022-07-29T12:13:04;101264.50;;;31.17;100.00
54308;BME280;40208;39.778;2.710;2022-07-29T12:15:56;101257.34;;;31.16;100.00
54308;BME280;40208;39.778;2.710;2022-07-29T12:18:42;101255.03;;;31.19;100.00
54308;BME280;40208;39.778;2.710;2022-07-29T12:21:49;101259.09;;;31.23;100.00
54308;BME280;40208;39.778;2.710;2022-07-29T12:24:44;101271.66;;;31.33;100.00
54308;BME280;40208;39.778;2.710;2022-07-29T12:27:29;101254.72;;;31.29;100.00
54308;BME280;40208;39.778;2.710;2022-07-29T12:30:15;101271.91;;;31.38;100.00
54308;BME280;40208;39.778;2.710;2022-07-29T12:33:00;101262.38;;;31.34;100.00
54308;BME280;40208;39.778;2.710;2022-07-29T12:35:47;101267.00;;;31.33;100.00
54308;BME280;40208;39.778;2.710;2022-07-29T12:38:34;101257.53;;;31.36;100.00
54308;BME280;40208;39.778;2.710;2022-07-29T12:41:20;101265.78;;;31.36;100.00
54308;BME280;40208;39.778;2.710;2022-07-29T12:44:05;101266.06;;;31.41;100.00
54308;BME280;40208;39.778;2.710;2022-07-29T12:47:03;101264.38;;;31.40;100.00
54308;BME280;40208;39.778;2.710;2022-07-29T12:49:49;101270.53;;;31.42;100.00
54308;BME280;40208;39.778;2.710;2022-07-29T12:52:34;101264.63;;;31.45;100.00
54308;BME280;40208;39.778;2.710;2022-07-29T12:55:45;101265.16;;;31.55;100.00
54308;BME280;40208;39.778;2.710;2022-07-29T12:58:39;101249.94;;;31.53;100.00
54308;BME280;40208;39.778;2.710;2022-07-29T13:01:24;101266.72;;;31.64;100.00
54308;BME280;40208;39.778;2.710;2022-07-29T13:04:09;101261.22;;;31.64;100.00
54308;BME280;40208;39.778;2.710;2022-07-29T13:09:45;101260.47;;;31.71;100.00
54308;BME280;40208;39.778;2.710;2022-07-29T13:12:30;101213.16;;;31.47;100.00
54308;BME280;40208;39.778;2.710;2022-07-29T13:15:15;101250.38;;;31.78;100.00
54308;BME280;40208;39.778;2.710;2022-07-29T13:18:01;101224.72;;;31.64;100.00
54308;BME280;40208;39.778;2.710;2022-07-29T13:20:46;101244.69;;;31.79;100.00
54308;BME280;40208;39.778;2.710;2022-07-29T13:23:31;101254.41;;;31.82;100.00
54308;BME280;40208;39.778;2.710;2022-07-29T13:26:15;101249.13;;;31.80;100.00
54308;BME280;40208;39.778;2.710;2022-07-29T13:29:03;101235.59;;;31.79;100.00
54308;BME280;40208;39.778;2.710;2022-07-29T13:31:48;101245.56;;;31.80;100.00
54308;BME280;40208;39.778;2.710;2022-07-29T13:34:33;101222.41;;;31.67;100.00
54308;BME280;40208;39.778;2.710;2022-07-29T13:37:18;101237.56;;;31.85;100.00
54308;BME280;40208;39.778;2.710;2022-07-29T13:40:05;101235.72;;;31.92;100.00
54308;BME280;40208;39.778;2.710;2022-07-29T13:42:50;101241.41;;;31.90;100.00
54308;BME280;40208;39.778;2.710;2022-07-29T13:45:35;101236.56;;;31.93;100.00
54308;BME280;40208;39.778;2.710;2022-07-29T13:48:20;101228.97;;;31.95;100.00
54308;BME280;40208;39.778;2.710;2022-07-29T13:51:05;101204.56;;;31.78;100.00
54308;BME280;40208;39.778;2.710;2022-07-29T13:53:50;101229.44;;;31.98;100.00
54308;BME280;40208;39.778;2.710;2022-07-29T13:56:35;101187.00;;;31.73;100.00
54308;BME280;40208;39.778;2.710;2022-07-29T13:59:20;101208.22;;;31.85;100.00
54308;BME280;40208;39.778;2.710;2022-07-29T14:02:05;101211.63;;;31.87;100.00
54308;BME280;40208;39.778;2.710;2022-07-29T14:04:50;101212.97;;;31.98;100.00
54308;BME280;40208;39.778;2.710;2022-07-29T14:07:34;101222.72;;;32.01;100.00
54308;BME280;40208;39.778;2.710;2022-07-29T14:10:20;101034.00;;;30.75;100.00
54308;BME280;40208;39.778;2.710;2022-07-29T14:13:04;101221.91;;;32.07;100.00
54308;BME280;40208;39.778;2.710;2022-07-29T14:15:49;101209.69;;;32.09;100.00
54308;BME280;40208;39.778;2.710;2022-07-29T14:18:34;101157.25;;;31.76;100.00
54308;BME280;40208;39.778;2.710;2022-07-29T14:21:19;101134.56;;;31.61;100.00
54308;BME280;40208;39.778;2.710;2022-07-29T14:24:05;101202.09;;;32.11;100.00
54308;BME280;40208;39.778;2.710;2022-07-29T14:26:51;101197.91;;;32.16;100.00
54308;BME280;40208;39.778;2.710;2022-07-29T14:29:36;101208.88;;;32.16;100.00
54308;BME280;40208;39.778;2.710;2022-07-29T14:32:21;101206.38;;;32.21;100.00
54308;BME280;40208;39.778;2.710;2022-07-29T14:35:06;101198.53;;;32.18;100.00
54308;BME280;40208;39.778;2.710;2022-07-29T14:37:52;101198.94;;;32.15;100.00
54308;BME280;40208;39.778;2.710;2022-07-29T14:40:37;101180.25;;;32.03;100.00
54308;BME280;40208;39.778;2.710;2022-07-29T14:43:22;101198.69;;;32.09;100.00
54308;BME280;40208;39.778;2.710;2022-07-29T14:46:07;101209.69;;;32.09;100.00
54308;BME280;40208;39.778;2.710;2022-07-29T14:48:52;101177.19;;;31.91;100.00
54308;BME280;40208;39.778;2.710;2022-07-29T14:51:36;101200.19;;;32.12;100.00
54308;BME280;40208;39.778;2.710;2022-07-29T14:54:21;101185.22;;;32.15;100.00
54308;BME280;40208;39.778;2.710;2022-07-29T14:57:06;101192.41;;;32.16;100.00
54308;BME280;40208;39.778;2.710;2022-07-29T14:59:51;101190.09;;;32.19;100.00
54308;BME280;40208;39.778;2.710;2022-07-29T15:02:36;101192.00;;;32.19;100.00
54308;BME280;40208;39.778;2.710;2022-07-29T15:05:20;101180.97;;;32.12;100.00
54308;BME280;40208;39.778;2.710;2022-07-29T15:08:05;101186.66;;;32.10;100.00
54308;BME280;40208;39.778;2.710;2022-07-29T15:10:52;101183.28;;;32.08;100.00
54308;BME280;40208;39.778;2.710;2022-07-29T15:13:37;101181.81;;;32.13;100.00
54308;BME280;40208;39.778;2.710;2022-07-29T15:16:22;101188.47;;;32.25;100.00